Pagrindinis puslapis
METAR-TAF:

METAR-TAF

Oro uostai :

Boa Višta, Žaliasis Kyšulys

platuma: 16-08-15N, ilguma: 22-53-22W, Aukštis: 21 m

Dabartinis oras

Ataskaita buvo paskelbta 41 minutes, ne 07:00 UTC
Vėjas 11 kt iš Šiaurės Rytų
Temperatūra 22°C
Drėgmė 73%
Slėgis 1014 hPa
Matomumas: 6000 m
Mažai debesys ne aukštis 1400 ft
Su prošvaistėmis ne aukštis 10000 ft
Su prošvaistėmis ne aukštis 20000 ft

METAR: GVBA 020700Z 04011KT 6000 FEW014 BKN100 BKN200 22/17 Q1014 NOSIG

Laikas: 06:41 (07:41 UTC)

Prognozė

Ataskaita buvo paskelbta 8 valandos ir 41 minutes, ne 23:00 UTC
Prognozė galioja nuo 02 metu 00 UTC su 03 metu 06 UTC
Vėjas 17 kt iš Šiaurės/Šiaurės Rytų
Matomumas: 4000 m
Mažai debesys ne aukštis 1400 ft
migla
Tikimybė 40% :
Laikinai
nuo 02 metu 12 UTC su 02 metu 18 UTC
Vėjas 18 kt iš Šiaurės/Šiaurės Rytų su gūsio iki 28 kt
Matomumas: 6000 m

TAF: GVBA 012300Z 0200/0306 03017KT 4000 HZ FEW014 PROB40 TEMPO 0212/0218 03018G28KT 6000

Orai ataskaitas ir orų prognozės (METAR, TAF).

turimą stotys yra geltonos ir raudonos taškus žemėlapyje.

Perkelti pele per norėdami pamatyti stoties vardą.

Tada spustelėkite, norėdami matyti oro stebėjimo ir prognozės.

Norėdami pakeisti žemėlapį: spustelėkite ant žalios mygtukų su juodo kryžiaus žemyn,; žalią mygtuką su brūkšneliu, jei norite nutolinti; arba žalių rodyklių gretimoms žemėlapius.


METAR-TAF: